KFXE/FXE METAR and TAF weather

Enter ICAO airport designator
Station Type Date Time Source
KFXE METAR 2022/01/28 23:53 UTC NOAA

KFXE 282353Z 28009KT 10SM CLR 21/14 A2993 RMK AO2 SLP138 T02110139 10239 20200 53013


Station Type Date Time Source
KFXE Decoded METAR 2022/01/28 23:53 UTC NOAA

FORT LAUDERDALE EXECUTIVE, FL, United States (KFXE) 26-12N 080-11W 6M
Jan 28, 2022 - 06:53 PM EST / 2022.01.28 2353 UTC
Wind: from the W (280 degrees) at 10 MPH (9 KT):0
Visibility: 10 mile(s):0
Sky conditions: clear
Temperature: 70.0 F (21.1 C)
Dew Point: 57.0 F (13.9 C)
Relative Humidity: 63%
Pressure (altimeter): 29.93 in. Hg (1013 hPa)
Pressure tendency: 0.04 inches (1.3 hPa) higher than three hours ago
ob: KFXE 282353Z 28009KT 10SM CLR 21/14 A2993 RMK AO2 SLP138 T02110139 10239 20200 53013
cycle: 0

Station Type Date Time Source
KFXE TAF 2022/01/28 21:57 UTC NOAA

TAF
AMD KFXE 282055Z 2821/2918 29012KT P6SM SCT025 BKN050
FM290000 30010G20KT P6SM FEW025 SCT050
FM290300 32015G26KT P6SM SKC

Example: see airport list